Clifford, MI

11:58 AM EDT on September 05, 2015 (GMT -0400)
Marlette, MAC | | Change Station
CLOSE
Current Station
Personal Weather Station
Location: Marlette, MI
Elevation: 879 ft
Nearby Weather Stations

Elev 879 ft 43.31 °N, 83.09 °W | Updated 1 minute ago

Overcast
Overcast
73.9 °F
Feels Like 72 °F
N
5.0
Wind Variable Wind from South
Gusts 8.0 mph

Today
High -- | Low -- °F
--% Chance of Precip.
Yesterday
High -- | Low -- °F
Precip. -- in
7:00 AM 8:01 PM
Waning Gibbous, 47% visible
Pressure 30.15 in
Visibility 10.0 miles
Clouds Scattered Clouds 1400 ft
Mostly Cloudy 2300 ft
Overcast 2900 ft
Heat Index 72 °F
Dew Point 71 °F
Humidity 91%
Rainfall 0.00 in
Snow Depth Not available.
UV 2 out of 12
Pollen 9.90 out of 12
Air Quality Not available.
Flu Activity Not available.
METAR KD95 051554Z AUTO 20007KT 10SM SCT014 BKN023 OVC029 25/21 A3015 RMK AO2 T02510211
Pressure 30.15 in
Visibility 10.0 miles
Clouds Scattered Clouds 1400 ft
Mostly Cloudy 2300 ft
Overcast 2900 ft
Heat Index 72 °F
Dew Point 71 °F
Humidity 91%
Rainfall 0.00 in
Snow Depth Not available.
UV 2 out of 12
Pollen 9.90 out of 12
Air Quality Not available.
Flu Activity Not available.
METAR KD95 051554Z AUTO 20007KT 10SM SCT014 BKN023 OVC029 25/21 A3015 RMK AO2 T02510211

10-Day Weather Forecast

×

Almanac

Astronomy

Sep. 05, 2015 Rise Set
Actual Time
Civil Twilight
Nautical Twilight
Astronomical Twilight
Moon
Length of Visible Light
Length of Day
Tomorrow will be .
, % of the Moon is Illuminated

Today's Extremes

State Highs State Lows

Community

WunderPhotos

Upload Photos

1,852,483 photos uploaded!

WunderBlogs® & News

Nearby

Air Quality

  Air Quality AQ Index Pollutant
Not available.

Snow Depth

Station Depth Elevation

Earthquake Activity

City Distance Mag. Time & Date
Minimum magnitude displayed is 2.5.

Coastal Water Temperatures

Place Temperature

Stations

Nearby Weather Stations

Station Location Temp. Windchill Dew Point Humidity Wind Precip. Elev Updated Type